Terminal Aerodrome Forecast
Issued by NWS

Current Version | Previous Version | Text Only | Print | Product List | Glossary Off
Versions: 1 2 3 4 5 6 7 8 9 10 11 12 13 14 15 16 17 18 19

000
FTUS41 KILN 150533
TAFLUK
TAF
KLUK 150533Z 1506/1606 00000KT 6SM BR SCT250
     FM150900 VRB02KT P6SM BKN200
     FM151500 18005KT P6SM OVC080
     FM151800 21011G20KT 3SM -SHRA OVC035
     FM152100 21011G20KT 5SM -SHRA BR OVC008
     FM160000 23007KT P6SM OVC006
     FM160300 27007KT P6SM OVC015=

USA.gov is the U.S. government's official web portal to all federal, state and local government web resources and services.